sensor_id;sensor_type;location;lat;lon;timestamp;pressure;altitude;pressure_sealevel;temperature;humidity
17525;BME280;40431;52.198;9.902;2023-03-04T00:00:46;101367.69;;;2.99;100.00
17525;BME280;40431;52.198;9.902;2023-03-04T00:03:12;101364.13;;;2.97;100.00
17525;BME280;40431;52.198;9.902;2023-03-04T00:05:39;101367.72;;;2.98;100.00
17525;BME280;40431;52.198;9.902;2023-03-04T00:08:07;101364.13;;;2.97;100.00
17525;BME280;40431;52.198;9.902;2023-03-04T00:10:33;101364.97;;;3.01;100.00
17525;BME280;40431;52.198;9.902;2023-03-04T00:13:00;101362.25;;;3.03;100.00
17525;BME280;40431;52.198;9.902;2023-03-04T00:15:26;101363.13;;;3.03;100.00
17525;BME280;40431;52.198;9.902;2023-03-04T00:17:52;101370.34;;;3.01;100.00
17525;BME280;40431;52.198;9.902;2023-03-04T00:20:19;101370.28;;;3.04;100.00
17525;BME280;40431;52.198;9.902;2023-03-04T00:22:45;101372.06;;;3.05;100.00
17525;BME280;40431;52.198;9.902;2023-03-04T00:25:13;101364.97;;;3.01;100.00
17525;BME280;40431;52.198;9.902;2023-03-04T00:27:39;101370.28;;;3.04;100.00
17525;BME280;40431;52.198;9.902;2023-03-04T00:30:07;101359.56;;;3.04;100.00
17525;BME280;40431;52.198;9.902;2023-03-04T00:32:33;101365.72;;;3.09;100.00
17525;BME280;40431;52.198;9.902;2023-03-04T00:35:00;101363.03;;;3.09;100.00
17525;BME280;40431;52.198;9.902;2023-03-04T00:37:26;101356.88;;;3.04;100.00
17525;BME280;40431;52.198;9.902;2023-03-04T00:39:52;101363.09;;;3.06;100.00
17525;BME280;40431;52.198;9.902;2023-03-04T00:42:20;101355.91;;;3.10;100.00
17525;BME280;40431;52.198;9.902;2023-03-04T00:44:46;101357.75;;;3.06;100.00
17525;BME280;40431;52.198;9.902;2023-03-04T00:47:13;101358.59;;;3.10;100.00
17525;BME280;40431;52.198;9.902;2023-03-04T00:49:40;101357.69;;;3.09;100.00
17525;BME280;40431;52.198;9.902;2023-03-04T00:52:06;101353.19;;;3.11;100.00
17525;BME280;40431;52.198;9.902;2023-03-04T00:54:33;101354.94;;;3.12;100.00
17525;BME280;40431;52.198;9.902;2023-03-04T00:56:59;101350.53;;;3.11;100.00
17525;BME280;40431;52.198;9.902;2023-03-04T00:59:27;101360.28;;;3.15;100.00
17525;BME280;40431;52.198;9.902;2023-03-04T01:01:53;101345.16;;;3.11;100.00
17525;BME280;40431;52.198;9.902;2023-03-04T01:04:19;101345.94;;;3.18;100.00
17525;BME280;40431;52.198;9.902;2023-03-04T01:06:46;101347.75;;;3.16;100.00
17525;BME280;40431;52.198;9.902;2023-03-04T01:09:12;101345.97;;;3.15;100.00
17525;BME280;40431;52.198;9.902;2023-03-04T01:11:38;101336.19;;;3.12;100.00
17525;BME280;40431;52.198;9.902;2023-03-04T01:14:05;101339.78;;;3.13;100.00
17525;BME280;40431;52.198;9.902;2023-03-04T01:16:33;101344.16;;;3.17;100.00
17525;BME280;40431;52.198;9.902;2023-03-04T01:18:59;101337.88;;;3.20;100.00
17525;BME280;40431;52.198;9.902;2023-03-04T01:21:25;101331.63;;;3.17;100.00
17525;BME280;40431;52.198;9.902;2023-03-04T01:23:52;101331.59;;;3.19;100.00
17525;BME280;40431;52.198;9.902;2023-03-04T01:26:18;101323.59;;;3.17;100.00
17525;BME280;40431;52.198;9.902;2023-03-04T01:28:45;101325.31;;;3.22;100.00
17525;BME280;40431;52.198;9.902;2023-03-04T01:31:11;101313.78;;;3.18;100.00
17525;BME280;40431;52.198;9.902;2023-03-04T01:33:39;101313.75;;;3.20;100.00
17525;BME280;40431;52.198;9.902;2023-03-04T01:36:05;101311.03;;;3.21;100.00
17525;BME280;40431;52.198;9.902;2023-03-04T01:38:32;101306.50;;;3.25;100.00
17525;BME280;40431;52.198;9.902;2023-03-04T01:40:58;101308.28;;;3.26;100.00
17525;BME280;40431;52.198;9.902;2023-03-04T01:43:26;101306.50;;;3.25;100.00
17525;BME280;40431;52.198;9.902;2023-03-04T01:45:54;101302.06;;;3.24;100.00
17525;BME280;40431;52.198;9.902;2023-03-04T01:48:23;101303.84;;;3.23;100.00
17525;BME280;40431;52.198;9.902;2023-03-04T01:50:52;101290.44;;;3.25;100.00
17525;BME280;40431;52.198;9.902;2023-03-04T01:53:21;101300.25;;;3.26;100.00
17525;BME280;40431;52.198;9.902;2023-03-04T01:55:48;101288.53;;;3.30;100.00
17525;BME280;40431;52.198;9.902;2023-03-04T01:58:15;101284.03;;;3.32;100.00
17525;BME280;40431;52.198;9.902;2023-03-04T02:00:41;101271.53;;;3.31;100.00
17525;BME280;40431;52.198;9.902;2023-03-04T02:03:10;101267.94;;;3.32;100.00
17525;BME280;40431;52.198;9.902;2023-03-04T02:05:40;101261.63;;;3.34;100.00
17525;BME280;40431;52.198;9.902;2023-03-04T02:08:09;101265.25;;;3.32;100.00
17525;BME280;40431;52.198;9.902;2023-03-04T02:10:37;101254.47;;;3.37;100.00
17525;BME280;40431;52.198;9.902;2023-03-04T02:13:05;101259.75;;;3.40;100.00
17525;BME280;40431;52.198;9.902;2023-03-04T02:15:31;101265.97;;;3.40;100.00
17525;BME280;40431;52.198;9.902;2023-03-04T02:17:58;101257.03;;;3.41;100.00
17525;BME280;40431;52.198;9.902;2023-03-04T02:20:34;101249.97;;;3.37;100.00
17525;BME280;40431;52.198;9.902;2023-03-04T02:23:08;101242.78;;;3.39;100.00
17525;BME280;40431;52.198;9.902;2023-03-04T02:25:42;101242.75;;;3.41;100.00
17525;BME280;40431;52.198;9.902;2023-03-04T02:28:11;101243.56;;;3.46;100.00
17525;BME280;40431;52.198;9.902;2023-03-04T02:30:38;101230.16;;;3.44;100.00
17525;BME280;40431;52.198;9.902;2023-03-04T02:33:04;101234.56;;;3.47;100.00
17525;BME280;40431;52.198;9.902;2023-03-04T02:35:31;101231.88;;;3.48;100.00
17525;BME280;40431;52.198;9.902;2023-03-04T02:37:58;101244.34;;;3.49;100.00
17525;BME280;40431;52.198;9.902;2023-03-04T02:40:28;101241.66;;;3.51;100.00
17525;BME280;40431;52.198;9.902;2023-03-04T02:42:57;101238.94;;;3.53;100.00
17525;BME280;40431;52.198;9.902;2023-03-04T02:45:35;101235.28;;;3.57;100.00
17525;BME280;40431;52.198;9.902;2023-03-04T02:48:02;101238.78;;;3.59;100.00
17525;BME280;40431;52.198;9.902;2023-03-04T02:50:34;101229.91;;;3.57;100.00
17525;BME280;40431;52.198;9.902;2023-03-04T02:53:02;101240.56;;;3.60;100.00
17525;BME280;40431;52.198;9.902;2023-03-04T02:55:28;101235.13;;;3.63;100.00
17525;BME280;40431;52.198;9.902;2023-03-04T02:57:56;101241.41;;;3.63;100.00
17525;BME280;40431;52.198;9.902;2023-03-04T03:00:22;101233.38;;;3.60;100.00
17525;BME280;40431;52.198;9.902;2023-03-04T03:02:50;101229.75;;;3.63;100.00
17525;BME280;40431;52.198;9.902;2023-03-04T03:05:17;101230.69;;;3.62;100.00
17525;BME280;40431;52.198;9.902;2023-03-04T03:07:44;101233.34;;;3.63;100.00
17525;BME280;40431;52.198;9.902;2023-03-04T03:10:10;101228.03;;;3.62;100.00
17525;BME280;40431;52.198;9.902;2023-03-04T03:12:37;101228.78;;;3.68;100.00
17525;BME280;40431;52.198;9.902;2023-03-04T03:15:04;101235.91;;;3.68;100.00
17525;BME280;40431;52.198;9.902;2023-03-04T03:17:30;101234.97;;;3.71;100.00
17525;BME280;40431;52.198;9.902;2023-03-04T03:19:58;101225.13;;;3.71;100.00
17525;BME280;40431;52.198;9.902;2023-03-04T03:22:24;101218.03;;;3.68;100.00
17525;BME280;40431;52.198;9.902;2023-03-04T03:24:51;101226.13;;;3.67;100.00
17525;BME280;40431;52.198;9.902;2023-03-04T03:27:17;101226.00;;;3.72;100.00
17525;BME280;40431;52.198;9.902;2023-03-04T03:29:44;101219.69;;;3.74;100.00
17525;BME280;40431;52.198;9.902;2023-03-04T03:32:10;101211.72;;;3.71;100.00
17525;BME280;40431;52.198;9.902;2023-03-04T03:34:36;101216.19;;;3.71;100.00
17525;BME280;40431;52.198;9.902;2023-03-04T03:37:04;101215.31;;;3.70;100.00
17525;BME280;40431;52.198;9.902;2023-03-04T03:39:30;101217.09;;;3.71;100.00
17525;BME280;40431;52.198;9.902;2023-03-04T03:41:57;101207.31;;;3.68;100.00
17525;BME280;40431;52.198;9.902;2023-03-04T03:44:23;101219.81;;;3.68;100.00
17525;BME280;40431;52.198;9.902;2023-03-04T03:46:49;101213.47;;;3.72;100.00
17525;BME280;40431;52.198;9.902;2023-03-04T03:49:16;101217.09;;;3.71;100.00
17525;BME280;40431;52.198;9.902;2023-03-04T03:51:42;101210.88;;;3.69;100.00
17525;BME280;40431;52.198;9.902;2023-03-04T03:54:10;101211.78;;;3.68;100.00
17525;BME280;40431;52.198;9.902;2023-03-04T03:56:36;101208.16;;;3.71;100.00
17525;BME280;40431;52.198;9.902;2023-03-04T03:59:03;101204.66;;;3.67;100.00
17525;BME280;40431;52.198;9.902;2023-03-04T04:01:29;101205.53;;;3.67;100.00
17525;BME280;40431;52.198;9.902;2023-03-04T04:03:57;101215.34;;;3.68;100.00
17525;BME280;40431;52.198;9.902;2023-03-04T04:06:24;101205.56;;;3.66;100.00
17525;BME280;40431;52.198;9.902;2023-03-04T04:08:50;101201.94;;;3.68;100.00
17525;BME280;40431;52.198;9.902;2023-03-04T04:11:18;101195.69;;;3.68;100.00
17525;BME280;40431;52.198;9.902;2023-03-04T04:13:44;101198.41;;;3.66;100.00
17525;BME280;40431;52.198;9.902;2023-03-04T04:16:10;101189.56;;;3.61;100.00
17525;BME280;40431;52.198;9.902;2023-03-04T04:18:37;101197.66;;;3.60;100.00
17525;BME280;40431;52.198;9.902;2023-03-04T04:21:04;101196.72;;;3.62;100.00
17525;BME280;40431;52.198;9.902;2023-03-04T04:23:31;101183.31;;;3.62;100.00
17525;BME280;40431;52.198;9.902;2023-03-04T04:25:57;101200.31;;;3.61;100.00
17525;BME280;40431;52.198;9.902;2023-03-04T04:28:25;101201.19;;;3.62;100.00
17525;BME280;40431;52.198;9.902;2023-03-04T04:30:51;101201.13;;;3.65;100.00
17525;BME280;40431;52.198;9.902;2023-03-04T04:33:17;101199.31;;;3.67;100.00
17525;BME280;40431;52.198;9.902;2023-03-04T04:35:44;101185.97;;;3.62;100.00
17525;BME280;40431;52.198;9.902;2023-03-04T04:38:10;101189.63;;;3.60;100.00
17525;BME280;40431;52.198;9.902;2023-03-04T04:40:37;101181.66;;;3.57;100.00
17525;BME280;40431;52.198;9.902;2023-03-04T04:43:03;101190.59;;;3.56;100.00
17525;BME280;40431;52.198;9.902;2023-03-04T04:45:31;101177.31;;;3.51;100.00
17525;BME280;40431;52.198;9.902;2023-03-04T04:47:57;101187.13;;;3.50;100.00
17525;BME280;40431;52.198;9.902;2023-03-04T04:50:24;101186.25;;;3.50;100.00
17525;BME280;40431;52.198;9.902;2023-03-04T04:52:51;101176.44;;;3.49;100.00
17525;BME280;40431;52.198;9.902;2023-03-04T04:55:17;101181.69;;;3.54;100.00
17525;BME280;40431;52.198;9.902;2023-03-04T04:57:43;101186.28;;;3.48;100.00
17525;BME280;40431;52.198;9.902;2023-03-04T05:00:11;101180.94;;;3.48;100.00
17525;BME280;40431;52.198;9.902;2023-03-04T05:02:39;101178.25;;;3.48;100.00
17525;BME280;40431;52.198;9.902;2023-03-04T05:05:06;101181.88;;;3.44;100.00
17525;BME280;40431;52.198;9.902;2023-03-04T05:07:32;101176.53;;;3.46;100.00
17525;BME280;40431;52.198;9.902;2023-03-04T05:09:59;101179.22;;;3.44;100.00
17525;BME280;40431;52.198;9.902;2023-03-04T05:12:25;101183.66;;;3.45;100.00
17525;BME280;40431;52.198;9.902;2023-03-04T05:14:52;101174.72;;;3.46;100.00
17525;BME280;40431;52.198;9.902;2023-03-04T05:17:18;101171.13;;;3.47;100.00
17525;BME280;40431;52.198;9.902;2023-03-04T05:19:46;101166.59;;;3.51;100.00
17525;BME280;40431;52.198;9.902;2023-03-04T05:22:12;101161.22;;;3.49;100.00
17525;BME280;40431;52.198;9.902;2023-03-04T05:24:38;101160.47;;;3.43;100.00
17525;BME280;40431;52.198;9.902;2023-03-04T05:27:05;101158.75;;;3.42;100.00
17525;BME280;40431;52.198;9.902;2023-03-04T05:29:31;101164.06;;;3.43;100.00
17525;BME280;40431;52.198;9.902;2023-03-04T05:31:57;101156.84;;;3.45;100.00
17525;BME280;40431;52.198;9.902;2023-03-04T05:34:24;101161.41;;;3.42;100.00
17525;BME280;40431;52.198;9.902;2023-03-04T05:36:51;101160.47;;;3.43;100.00
17525;BME280;40431;52.198;9.902;2023-03-04T05:39:18;101168.72;;;3.35;100.00
17525;BME280;40431;52.198;9.902;2023-03-04T05:41:44;101166.78;;;3.42;100.00
17525;BME280;40431;52.198;9.902;2023-03-04T05:44:10;101167.66;;;3.42;100.00
17525;BME280;40431;52.198;9.902;2023-03-04T05:46:37;101167.78;;;3.36;100.00
17525;BME280;40431;52.198;9.902;2023-03-04T05:49:03;101166.78;;;3.40;100.00
17525;BME280;40431;52.198;9.902;2023-03-04T05:51:29;101166.88;;;3.37;100.00
17525;BME280;40431;52.198;9.902;2023-03-04T05:53:57;101155.16;;;3.41;100.00
17525;BME280;40431;52.198;9.902;2023-03-04T05:56:23;101154.38;;;3.36;100.00
17525;BME280;40431;52.198;9.902;2023-03-04T05:58:50;101157.00;;;3.39;100.00
17525;BME280;40431;52.198;9.902;2023-03-04T06:01:16;101160.44;;;3.44;100.00
17525;BME280;40431;52.198;9.902;2023-03-04T06:03:43;101165.75;;;3.47;100.00
17525;BME280;40431;52.198;9.902;2023-03-04T06:06:09;101166.78;;;3.42;100.00
17525;BME280;40431;52.198;9.902;2023-03-04T06:08:36;101158.53;;;3.49;100.00
17525;BME280;40431;52.198;9.902;2023-03-04T06:11:04;101151.44;;;3.48;100.00
17525;BME280;40431;52.198;9.902;2023-03-04T06:13:30;101165.81;;;3.44;100.00
17525;BME280;40431;52.198;9.902;2023-03-04T06:15:58;101160.50;;;3.41;100.00
17525;BME280;40431;52.198;9.902;2023-03-04T06:18:25;101163.19;;;3.41;100.00
17525;BME280;40431;52.198;9.902;2023-03-04T06:20:55;101171.16;;;3.44;100.00
17525;BME280;40431;52.198;9.902;2023-03-04T06:23:21;101162.28;;;3.42;100.00
17525;BME280;40431;52.198;9.902;2023-03-04T06:25:50;101173.06;;;3.41;100.00
17525;BME280;40431;52.198;9.902;2023-03-04T06:28:18;101166.88;;;3.37;100.00
17525;BME280;40431;52.198;9.902;2023-03-04T06:30:45;101171.25;;;3.41;100.00
17525;BME280;40431;52.198;9.902;2023-03-04T06:33:11;101168.59;;;3.40;100.00
17525;BME280;40431;52.198;9.902;2023-03-04T06:35:37;101170.34;;;3.42;100.00
17525;BME280;40431;52.198;9.902;2023-03-04T06:38:04;101173.84;;;3.44;100.00
17525;BME280;40431;52.198;9.902;2023-03-04T06:40:30;101172.09;;;3.43;100.00
17525;BME280;40431;52.198;9.902;2023-03-04T06:42:57;101179.19;;;3.46;100.00
17525;BME280;40431;52.198;9.902;2023-03-04T06:45:25;101179.25;;;3.43;100.00
17525;BME280;40431;52.198;9.902;2023-03-04T06:47:51;101182.72;;;3.48;100.00
17525;BME280;40431;52.198;9.902;2023-03-04T06:50:18;101187.25;;;3.44;100.00
17525;BME280;40431;52.198;9.902;2023-03-04T06:52:44;101180.94;;;3.48;100.00
17525;BME280;40431;52.198;9.902;2023-03-04T06:55:11;101171.03;;;3.50;100.00
17525;BME280;40431;52.198;9.902;2023-03-04T06:57:38;101171.81;;;3.56;100.00
17525;BME280;40431;52.198;9.902;2023-03-04T07:00:05;101178.94;;;3.58;100.00
17525;BME280;40431;52.198;9.902;2023-03-04T07:02:33;101169.03;;;3.62;100.00
17525;BME280;40431;52.198;9.902;2023-03-04T07:04:59;101172.53;;;3.64;100.00
17525;BME280;40431;52.198;9.902;2023-03-04T07:07:26;101169.03;;;3.62;100.00
17525;BME280;40431;52.198;9.902;2023-03-04T07:09:52;101170.75;;;3.63;100.00
17525;BME280;40431;52.198;9.902;2023-03-04T07:12:19;101165.34;;;3.66;100.00
17525;BME280;40431;52.198;9.902;2023-03-04T07:14:45;101165.28;;;3.69;100.00
17525;BME280;40431;52.198;9.902;2023-03-04T07:17:11;101162.50;;;3.74;100.00
17525;BME280;40431;52.198;9.902;2023-03-04T07:19:39;101174.00;;;3.77;100.00
17525;BME280;40431;52.198;9.902;2023-03-04T07:22:06;101166.06;;;3.74;100.00
17525;BME280;40431;52.198;9.902;2023-03-04T07:24:32;101168.66;;;3.77;100.00
17525;BME280;40431;52.198;9.902;2023-03-04T07:26:58;101167.75;;;3.78;100.00
17525;BME280;40431;52.198;9.902;2023-03-04T07:29:25;101171.25;;;3.82;100.00
17525;BME280;40431;52.198;9.902;2023-03-04T07:31:51;101176.47;;;3.87;100.00
17525;BME280;40431;52.198;9.902;2023-03-04T07:34:17;101175.50;;;3.91;100.00
17525;BME280;40431;52.198;9.902;2023-03-04T07:36:45;101172.69;;;3.97;100.00
17525;BME280;40431;52.198;9.902;2023-03-04T07:39:12;101164.63;;;3.97;100.00
17525;BME280;40431;52.198;9.902;2023-03-04T07:41:39;101171.91;;;3.92;100.00
17525;BME280;40431;52.198;9.902;2023-03-04T07:44:07;101170.91;;;3.96;100.00
17525;BME280;40431;52.198;9.902;2023-03-04T07:46:34;101178.91;;;3.99;100.00
17525;BME280;40431;52.198;9.902;2023-03-04T07:49:00;101176.28;;;3.96;100.00
17525;BME280;40431;52.198;9.902;2023-03-04T07:51:27;101177.13;;;3.98;100.00
17525;BME280;40431;52.198;9.902;2023-03-04T07:53:57;101179.72;;;4.01;100.00
17525;BME280;40431;52.198;9.902;2023-03-04T07:56:26;101176.00;;;4.07;100.00
17525;BME280;40431;52.198;9.902;2023-03-04T07:58:52;101165.28;;;4.07;100.00
17525;BME280;40431;52.198;9.902;2023-03-04T08:01:21;101163.28;;;4.16;100.00
17525;BME280;40431;52.198;9.902;2023-03-04T08:03:48;101169.41;;;4.20;100.00
17525;BME280;40431;52.198;9.902;2023-03-04T08:06:16;101164.81;;;4.27;100.00
17525;BME280;40431;52.198;9.902;2023-03-04T08:08:43;101168.38;;;4.27;100.00
17525;BME280;40431;52.198;9.902;2023-03-04T08:11:13;101172.69;;;4.33;100.00
17525;BME280;40431;52.198;9.902;2023-03-04T08:13:40;101166.59;;;4.26;100.00
17525;BME280;40431;52.198;9.902;2023-03-04T08:16:07;101164.00;;;4.23;100.00
17525;BME280;40431;52.198;9.902;2023-03-04T08:18:33;101172.78;;;4.30;100.00
17525;BME280;40431;52.198;9.902;2023-03-04T08:21:00;101159.41;;;4.28;100.00
17525;BME280;40431;52.198;9.902;2023-03-04T08:23:26;101165.50;;;4.35;100.00
17525;BME280;40431;52.198;9.902;2023-03-04T08:25:52;101167.09;;;4.42;100.00
17525;BME280;40431;52.198;9.902;2023-03-04T08:28:20;101164.44;;;4.41;100.00
17525;BME280;40431;52.198;9.902;2023-03-04T08:30:51;101162.44;;;4.49;100.00
17525;BME280;40431;52.198;9.902;2023-03-04T08:33:18;101165.97;;;4.51;100.00
17525;BME280;40431;52.198;9.902;2023-03-04T08:35:44;101165.09;;;4.50;100.00
17525;BME280;40431;52.198;9.902;2023-03-04T08:38:11;101163.25;;;4.53;100.00
17525;BME280;40431;52.198;9.902;2023-03-04T08:40:37;101163.34;;;4.49;100.00
17525;BME280;40431;52.198;9.902;2023-03-04T08:43:03;101170.63;;;4.44;100.00
17525;BME280;40431;52.198;9.902;2023-03-04T08:45:31;101169.81;;;4.41;100.00
17525;BME280;40431;52.198;9.902;2023-03-04T08:47:57;101167.41;;;4.30;100.00
17525;BME280;40431;52.198;9.902;2023-03-04T08:50:24;101170.19;;;4.27;100.00
17525;BME280;40431;52.198;9.902;2023-03-04T08:52:51;101170.88;;;4.35;100.00
17525;BME280;40431;52.198;9.902;2023-03-04T08:55:18;101177.91;;;4.39;100.00
17525;BME280;40431;52.198;9.902;2023-03-04T08:57:44;101158.25;;;4.37;100.00
17525;BME280;40431;52.198;9.902;2023-03-04T09:00:11;101172.59;;;4.36;100.00
17525;BME280;40431;52.198;9.902;2023-03-04T09:02:39;101177.91;;;4.39;100.00
17525;BME280;40431;52.198;9.902;2023-03-04T09:05:06;101172.47;;;4.42;100.00
17525;BME280;40431;52.198;9.902;2023-03-04T09:07:33;101177.75;;;4.45;100.00
17525;BME280;40431;52.198;9.902;2023-03-04T09:09:59;101171.50;;;4.45;100.00
17525;BME280;40431;52.198;9.902;2023-03-04T09:12:26;101170.41;;;4.54;100.00
17525;BME280;40431;52.198;9.902;2023-03-04T09:14:52;101178.31;;;4.58;100.00
17525;BME280;40431;52.198;9.902;2023-03-04T09:17:18;101172.84;;;4.63;100.00
17525;BME280;40431;52.198;9.902;2023-03-04T09:19:46;101176.28;;;4.68;100.00
17525;BME280;40431;52.198;9.902;2023-03-04T09:22:12;101167.28;;;4.69;100.00
17525;BME280;40431;52.198;9.902;2023-03-04T09:24:39;101157.28;;;4.74;100.00
17525;BME280;40431;52.198;9.902;2023-03-04T09:27:05;101164.44;;;4.75;100.00
17525;BME280;40431;52.198;9.902;2023-03-04T09:29:31;101166.22;;;4.76;100.00
17525;BME280;40431;52.198;9.902;2023-03-04T09:31:58;101167.94;;;4.79;100.00
17525;BME280;40431;52.198;9.902;2023-03-04T09:34:24;101170.56;;;4.80;100.00
17525;BME280;40431;52.198;9.902;2023-03-04T09:36:52;101172.34;;;4.80;100.00
17525;BME280;40431;52.198;9.902;2023-03-04T09:39:18;101172.41;;;4.78;100.00
17525;BME280;40431;52.198;9.902;2023-03-04T09:41:46;101179.44;;;4.84;100.00
17525;BME280;40431;52.198;9.902;2023-03-04T09:44:19;101177.06;;;4.72;100.00
17525;BME280;40431;52.198;9.902;2023-03-04T09:46:47;101174.56;;;4.64;100.00
17525;BME280;40431;52.198;9.902;2023-03-04T09:49:15;101177.34;;;4.61;100.00
17525;BME280;40431;52.198;9.902;2023-03-04T09:51:47;101175.59;;;4.60;100.00
17525;BME280;40431;52.198;9.902;2023-03-04T09:54:20;101173.94;;;4.54;100.00
17525;BME280;40431;52.198;9.902;2023-03-04T09:56:58;101177.59;;;4.51;100.00
17525;BME280;40431;52.198;9.902;2023-03-04T09:59:29;101169.53;;;4.51;100.00
17525;BME280;40431;52.198;9.902;2023-03-04T10:01:58;101171.41;;;4.49;100.00
17525;BME280;40431;52.198;9.902;2023-03-04T10:04:32;101183.97;;;4.47;100.00
17525;BME280;40431;52.198;9.902;2023-03-04T10:07:00;101177.81;;;4.42;100.00
17525;BME280;40431;52.198;9.902;2023-03-04T10:09:42;101174.22;;;4.43;100.00
17525;BME280;40431;52.198;9.902;2023-03-04T10:12:12;101179.50;;;4.46;100.00
17525;BME280;40431;52.198;9.902;2023-03-04T10:14:43;101166.94;;;4.48;100.00
17525;BME280;40431;52.198;9.902;2023-03-04T10:17:15;101175.69;;;4.57;100.00
17525;BME280;40431;52.198;9.902;2023-03-04T10:19:53;101175.34;;;4.69;100.00
17525;BME280;40431;52.198;9.902;2023-03-04T10:22:25;101177.03;;;4.73;100.00
17525;BME280;40431;52.198;9.902;2023-03-04T10:24:57;101175.28;;;4.72;100.00
17525;BME280;40431;52.198;9.902;2023-03-04T10:27:24;101172.50;;;4.75;100.00
17525;BME280;40431;52.198;9.902;2023-03-04T10:29:51;101165.31;;;4.76;100.00
17525;BME280;40431;52.198;9.902;2023-03-04T10:32:19;101162.66;;;4.74;100.00
17525;BME280;40431;52.198;9.902;2023-03-04T10:34:45;101162.84;;;4.68;100.00
17525;BME280;40431;52.198;9.902;2023-03-04T10:37:12;101168.28;;;4.65;100.00
17525;BME280;40431;52.198;9.902;2023-03-04T10:39:40;101163.84;;;4.64;100.00
17525;BME280;40431;52.198;9.902;2023-03-04T10:42:25;101163.84;;;4.64;100.00
17525;BME280;40431;52.198;9.902;2023-03-04T10:44:53;101159.22;;;4.69;100.00
17525;BME280;40431;52.198;9.902;2023-03-04T10:47:22;101158.22;;;4.73;100.00
17525;BME280;40431;52.198;9.902;2023-03-04T10:49:51;101152.69;;;4.79;100.00
17525;BME280;40431;52.198;9.902;2023-03-04T10:52:25;101155.97;;;4.91;100.00
17525;BME280;40431;52.198;9.902;2023-03-04T10:54:53;101153.03;;;5.00;100.00
17525;BME280;40431;52.198;9.902;2023-03-04T10:57:24;101136.81;;;5.03;100.00
17525;BME280;40431;52.198;9.902;2023-03-04T10:59:55;101149.16;;;5.09;100.00
17525;BME280;40431;52.198;9.902;2023-03-04T11:02:24;101138.31;;;5.13;100.00
17525;BME280;40431;52.198;9.902;2023-03-04T11:04:55;101130.78;;;5.25;100.00
17525;BME280;40431;52.198;9.902;2023-03-04T11:07:23;101136.91;;;5.30;100.00
17525;BME280;40431;52.198;9.902;2023-03-04T11:09:50;101135.66;;;5.42;100.00
17525;BME280;40431;52.198;9.902;2023-03-04T11:12:19;101133.78;;;5.45;100.00
17525;BME280;40431;52.198;9.902;2023-03-04T11:14:49;101133.66;;;5.48;100.00
17525;BME280;40431;52.198;9.902;2023-03-04T11:17:22;101137.28;;;5.47;100.00
17525;BME280;40431;52.198;9.902;2023-03-04T11:19:53;101146.28;;;5.46;100.00
17525;BME280;40431;52.198;9.902;2023-03-04T11:22:22;101143.69;;;5.43;100.00
17525;BME280;40431;52.198;9.902;2023-03-04T11:24:55;101137.38;;;5.44;100.00
17525;BME280;40431;52.198;9.902;2023-03-04T11:27:29;101135.34;;;5.52;100.00
17525;BME280;40431;52.198;9.902;2023-03-04T11:30:15;101128.13;;;5.55;100.00
17525;BME280;40431;52.198;9.902;2023-03-04T11:32:45;101138.88;;;5.55;100.00
17525;BME280;40431;52.198;9.902;2023-03-04T11:35:17;101129.13;;;5.50;100.00
17525;BME280;40431;52.198;9.902;2023-03-04T11:37:53;101117.53;;;5.48;100.00
17525;BME280;40431;52.198;9.902;2023-03-04T11:40:28;101113.81;;;5.52;100.00
17525;BME280;40431;52.198;9.902;2023-03-04T11:43:01;101116.84;;;5.70;100.00
17525;BME280;40431;52.198;9.902;2023-03-04T11:45:44;101117.91;;;5.93;100.00
17525;BME280;40431;52.198;9.902;2023-03-04T11:48:17;101121.66;;;6.17;100.00
17525;BME280;40431;52.198;9.902;2023-03-04T11:50:50;101121.59;;;6.18;100.00
17525;BME280;40431;52.198;9.902;2023-03-04T11:53:24;101115.38;;;6.16;100.00
17525;BME280;40431;52.198;9.902;2023-03-04T11:56:01;101120.69;;;6.20;100.00
17525;BME280;40431;52.198;9.902;2023-03-04T11:58:50;101115.78;;;6.04;100.00
17525;BME280;40431;52.198;9.902;2023-03-04T12:01:25;101103.09;;;5.79;100.00
17525;BME280;40431;52.198;9.902;2023-03-04T12:04:09;101095.13;;;5.76;100.00
17525;BME280;40431;52.198;9.902;2023-03-04T12:06:48;101105.31;;;5.66;100.00
17525;BME280;40431;52.198;9.902;2023-03-04T12:09:31;101107.06;;;5.67;100.00
17525;BME280;40431;52.198;9.902;2023-03-04T12:12:18;101110.41;;;5.76;100.00
17525;BME280;40431;52.198;9.902;2023-03-04T12:14:52;101105.06;;;5.74;100.00
17525;BME280;40431;52.198;9.902;2023-03-04T12:17:37;101094.22;;;5.77;100.00
17525;BME280;40431;52.198;9.902;2023-03-04T12:20:22;101092.56;;;5.73;100.00
17525;BME280;40431;52.198;9.902;2023-03-04T12:22:54;101089.75;;;5.76;100.00
17525;BME280;40431;52.198;9.902;2023-03-04T12:25:33;101086.09;;;5.79;100.00
17525;BME280;40431;52.198;9.902;2023-03-04T12:28:15;101076.81;;;5.88;100.00
17525;BME280;40431;52.198;9.902;2023-03-04T12:31:00;101079.66;;;5.83;100.00
17525;BME280;40431;52.198;9.902;2023-03-04T12:33:34;101073.78;;;5.70;100.00
17525;BME280;40431;52.198;9.902;2023-03-04T12:36:11;101076.66;;;5.65;100.00
17525;BME280;40431;52.198;9.902;2023-03-04T12:38:51;101080.50;;;5.57;100.00
17525;BME280;40431;52.198;9.902;2023-03-04T12:41:28;101079.88;;;5.48;100.00
17525;BME280;40431;52.198;9.902;2023-03-04T12:44:07;101070.88;;;5.49;100.00
17525;BME280;40431;52.198;9.902;2023-03-04T12:46:47;101070.53;;;5.60;100.00
17525;BME280;40431;52.198;9.902;2023-03-04T12:49:43;101075.03;;;5.60;100.00
17525;BME280;40431;52.198;9.902;2023-03-04T12:52:17;101061.59;;;5.60;100.00
17525;BME280;40431;52.198;9.902;2023-03-04T12:54:51;101058.16;;;5.55;100.00
17525;BME280;40431;52.198;9.902;2023-03-04T12:57:23;101061.88;;;5.50;100.00